sensor_id;sensor_type;location;lat;lon;timestamp;temperature;humidity
27200;DHT22;14714;48.106;11.546;2023-11-22T00:01:06;7.30;99.90
27200;DHT22;14714;48.106;11.546;2023-11-22T00:03:33;7.30;99.90
27200;DHT22;14714;48.106;11.546;2023-11-22T00:06:00;7.30;99.90
27200;DHT22;14714;48.106;11.546;2023-11-22T00:08:28;7.30;99.90
27200;DHT22;14714;48.106;11.546;2023-11-22T00:10:56;7.30;99.90
27200;DHT22;14714;48.106;11.546;2023-11-22T00:13:23;7.30;99.90
27200;DHT22;14714;48.106;11.546;2023-11-22T00:15:50;7.30;99.90
27200;DHT22;14714;48.106;11.546;2023-11-22T00:18:19;7.20;99.90
27200;DHT22;14714;48.106;11.546;2023-11-22T00:20:46;7.20;99.90
27200;DHT22;14714;48.106;11.546;2023-11-22T00:23:14;7.20;99.90
27200;DHT22;14714;48.106;11.546;2023-11-22T00:25:41;7.20;99.90
27200;DHT22;14714;48.106;11.546;2023-11-22T00:28:08;7.20;99.90
27200;DHT22;14714;48.106;11.546;2023-11-22T00:30:35;7.20;99.90
27200;DHT22;14714;48.106;11.546;2023-11-22T00:33:02;7.20;99.90
27200;DHT22;14714;48.106;11.546;2023-11-22T00:35:29;7.20;99.90
27200;DHT22;14714;48.106;11.546;2023-11-22T00:37:56;7.20;99.90
27200;DHT22;14714;48.106;11.546;2023-11-22T00:40:24;7.10;99.90
27200;DHT22;14714;48.106;11.546;2023-11-22T00:42:51;7.10;99.90
27200;DHT22;14714;48.106;11.546;2023-11-22T00:45:18;7.10;99.90
27200;DHT22;14714;48.106;11.546;2023-11-22T00:47:45;7.10;99.90
27200;DHT22;14714;48.106;11.546;2023-11-22T00:50:12;7.10;99.90
27200;DHT22;14714;48.106;11.546;2023-11-22T00:52:40;7.10;99.90
27200;DHT22;14714;48.106;11.546;2023-11-22T00:55:11;7.10;99.90
27200;DHT22;14714;48.106;11.546;2023-11-22T00:57:38;7.10;99.90
27200;DHT22;14714;48.106;11.546;2023-11-22T01:00:05;7.10;99.90
27200;DHT22;14714;48.106;11.546;2023-11-22T01:02:36;7.10;99.90
27200;DHT22;14714;48.106;11.546;2023-11-22T01:05:10;7.10;99.90
27200;DHT22;14714;48.106;11.546;2023-11-22T01:07:38;7.10;99.90
27200;DHT22;14714;48.106;11.546;2023-11-22T01:10:06;7.00;99.90
27200;DHT22;14714;48.106;11.546;2023-11-22T01:12:33;7.00;99.90
27200;DHT22;14714;48.106;11.546;2023-11-22T01:15:00;7.00;99.90
27200;DHT22;14714;48.106;11.546;2023-11-22T01:17:27;7.00;99.90
27200;DHT22;14714;48.106;11.546;2023-11-22T01:19:54;7.00;99.90
27200;DHT22;14714;48.106;11.546;2023-11-22T01:22:21;7.00;99.90
27200;DHT22;14714;48.106;11.546;2023-11-22T01:24:48;6.90;99.90
27200;DHT22;14714;48.106;11.546;2023-11-22T01:27:15;6.90;99.90
27200;DHT22;14714;48.106;11.546;2023-11-22T01:29:42;6.90;99.90
27200;DHT22;14714;48.106;11.546;2023-11-22T01:32:09;6.90;99.90
27200;DHT22;14714;48.106;11.546;2023-11-22T01:34:35;6.90;99.90
27200;DHT22;14714;48.106;11.546;2023-11-22T01:37:03;6.90;99.90
27200;DHT22;14714;48.106;11.546;2023-11-22T01:39:31;6.90;99.90
27200;DHT22;14714;48.106;11.546;2023-11-22T01:41:58;6.90;99.90
27200;DHT22;14714;48.106;11.546;2023-11-22T01:44:25;6.90;99.90
27200;DHT22;14714;48.106;11.546;2023-11-22T01:46:53;6.90;99.90
27200;DHT22;14714;48.106;11.546;2023-11-22T01:49:20;6.90;99.90
27200;DHT22;14714;48.106;11.546;2023-11-22T01:51:47;6.90;99.90
27200;DHT22;14714;48.106;11.546;2023-11-22T01:54:15;6.90;99.90
27200;DHT22;14714;48.106;11.546;2023-11-22T01:56:44;7.00;99.90
27200;DHT22;14714;48.106;11.546;2023-11-22T01:59:12;7.00;99.90
27200;DHT22;14714;48.106;11.546;2023-11-22T02:01:40;7.00;99.90
27200;DHT22;14714;48.106;11.546;2023-11-22T02:04:08;7.00;99.90
27200;DHT22;14714;48.106;11.546;2023-11-22T02:06:36;7.00;99.90
27200;DHT22;14714;48.106;11.546;2023-11-22T02:09:03;7.00;99.90
27200;DHT22;14714;48.106;11.546;2023-11-22T02:11:30;6.90;99.90
27200;DHT22;14714;48.106;11.546;2023-11-22T02:13:57;6.90;99.90
27200;DHT22;14714;48.106;11.546;2023-11-22T02:16:24;6.90;99.90
27200;DHT22;14714;48.106;11.546;2023-11-22T02:18:50;6.90;99.90
27200;DHT22;14714;48.106;11.546;2023-11-22T02:21:17;6.90;99.90
27200;DHT22;14714;48.106;11.546;2023-11-22T02:23:44;6.70;99.90
27200;DHT22;14714;48.106;11.546;2023-11-22T02:26:11;6.60;99.90
27200;DHT22;14714;48.106;11.546;2023-11-22T02:28:38;6.50;99.90
27200;DHT22;14714;48.106;11.546;2023-11-22T02:31:05;6.30;99.90
27200;DHT22;14714;48.106;11.546;2023-11-22T02:33:32;6.10;99.90
27200;DHT22;14714;48.106;11.546;2023-11-22T02:35:59;5.90;99.90
27200;DHT22;14714;48.106;11.546;2023-11-22T02:38:25;5.60;99.90
27200;DHT22;14714;48.106;11.546;2023-11-22T02:40:54;5.40;99.90
27200;DHT22;14714;48.106;11.546;2023-11-22T02:43:21;5.20;99.90
27200;DHT22;14714;48.106;11.546;2023-11-22T02:45:50;5.00;99.90
27200;DHT22;14714;48.106;11.546;2023-11-22T02:48:17;4.90;99.90
27200;DHT22;14714;48.106;11.546;2023-11-22T02:50:45;4.80;99.90
27200;DHT22;14714;48.106;11.546;2023-11-22T02:53:12;4.70;99.90
27200;DHT22;14714;48.106;11.546;2023-11-22T02:55:39;4.60;99.90
27200;DHT22;14714;48.106;11.546;2023-11-22T02:58:06;4.50;99.90
27200;DHT22;14714;48.106;11.546;2023-11-22T03:00:33;4.40;99.90
27200;DHT22;14714;48.106;11.546;2023-11-22T03:03:01;4.40;99.90
27200;DHT22;14714;48.106;11.546;2023-11-22T03:05:30;4.30;99.90
27200;DHT22;14714;48.106;11.546;2023-11-22T03:07:57;4.30;99.90
27200;DHT22;14714;48.106;11.546;2023-11-22T03:10:24;4.30;99.90
27200;DHT22;14714;48.106;11.546;2023-11-22T03:12:51;4.20;99.90
27200;DHT22;14714;48.106;11.546;2023-11-22T03:15:18;4.20;99.90
27200;DHT22;14714;48.106;11.546;2023-11-22T03:17:45;4.10;99.90
27200;DHT22;14714;48.106;11.546;2023-11-22T03:20:12;4.10;99.90
27200;DHT22;14714;48.106;11.546;2023-11-22T03:22:39;4.20;99.90
27200;DHT22;14714;48.106;11.546;2023-11-22T03:25:06;4.10;99.90
27200;DHT22;14714;48.106;11.546;2023-11-22T03:27:37;4.10;99.90
27200;DHT22;14714;48.106;11.546;2023-11-22T03:30:05;4.00;99.90
27200;DHT22;14714;48.106;11.546;2023-11-22T03:32:38;3.90;99.90
27200;DHT22;14714;48.106;11.546;2023-11-22T03:35:07;3.90;99.90
27200;DHT22;14714;48.106;11.546;2023-11-22T03:37:34;3.80;99.90
27200;DHT22;14714;48.106;11.546;2023-11-22T03:40:02;3.80;99.90
27200;DHT22;14714;48.106;11.546;2023-11-22T03:42:29;3.80;99.90
27200;DHT22;14714;48.106;11.546;2023-11-22T03:44:56;3.80;99.90
27200;DHT22;14714;48.106;11.546;2023-11-22T03:47:25;3.70;99.90
27200;DHT22;14714;48.106;11.546;2023-11-22T03:49:52;3.70;99.90
27200;DHT22;14714;48.106;11.546;2023-11-22T03:52:19;3.60;99.90
27200;DHT22;14714;48.106;11.546;2023-11-22T03:54:46;3.60;99.90
27200;DHT22;14714;48.106;11.546;2023-11-22T03:57:12;3.60;99.90
27200;DHT22;14714;48.106;11.546;2023-11-22T03:59:40;3.60;99.90
27200;DHT22;14714;48.106;11.546;2023-11-22T04:02:07;3.50;99.90
27200;DHT22;14714;48.106;11.546;2023-11-22T04:04:34;3.60;99.90
27200;DHT22;14714;48.106;11.546;2023-11-22T04:07:01;3.60;99.90
27200;DHT22;14714;48.106;11.546;2023-11-22T04:09:28;3.60;99.90
27200;DHT22;14714;48.106;11.546;2023-11-22T04:11:56;3.60;99.90
27200;DHT22;14714;48.106;11.546;2023-11-22T04:14:22;3.60;99.90
27200;DHT22;14714;48.106;11.546;2023-11-22T04:16:49;3.60;99.90
27200;DHT22;14714;48.106;11.546;2023-11-22T04:19:16;3.60;99.90
27200;DHT22;14714;48.106;11.546;2023-11-22T04:21:44;3.60;99.90
27200;DHT22;14714;48.106;11.546;2023-11-22T04:24:11;3.60;99.90
27200;DHT22;14714;48.106;11.546;2023-11-22T04:26:39;3.70;99.90
27200;DHT22;14714;48.106;11.546;2023-11-22T04:29:05;3.60;99.90
27200;DHT22;14714;48.106;11.546;2023-11-22T04:31:33;3.70;99.90
27200;DHT22;14714;48.106;11.546;2023-11-22T04:33:59;3.70;99.90
27200;DHT22;14714;48.106;11.546;2023-11-22T04:36:27;3.80;99.90
27200;DHT22;14714;48.106;11.546;2023-11-22T04:38:54;3.80;99.90
27200;DHT22;14714;48.106;11.546;2023-11-22T04:41:20;3.80;99.90
27200;DHT22;14714;48.106;11.546;2023-11-22T04:43:49;3.80;99.90
27200;DHT22;14714;48.106;11.546;2023-11-22T04:46:16;3.80;99.90
27200;DHT22;14714;48.106;11.546;2023-11-22T04:48:43;3.80;99.90
27200;DHT22;14714;48.106;11.546;2023-11-22T04:51:11;3.80;99.90
27200;DHT22;14714;48.106;11.546;2023-11-22T04:53:38;3.70;99.90
27200;DHT22;14714;48.106;11.546;2023-11-22T04:56:06;3.70;99.90
27200;DHT22;14714;48.106;11.546;2023-11-22T04:58:33;3.70;99.90
27200;DHT22;14714;48.106;11.546;2023-11-22T05:01:00;3.70;99.90
27200;DHT22;14714;48.106;11.546;2023-11-22T05:03:28;3.70;99.90
27200;DHT22;14714;48.106;11.546;2023-11-22T05:05:55;3.70;99.90
27200;DHT22;14714;48.106;11.546;2023-11-22T05:08:22;3.70;99.90
27200;DHT22;14714;48.106;11.546;2023-11-22T05:10:49;3.70;99.90
27200;DHT22;14714;48.106;11.546;2023-11-22T05:13:17;3.60;99.90
27200;DHT22;14714;48.106;11.546;2023-11-22T05:15:44;3.70;99.90
27200;DHT22;14714;48.106;11.546;2023-11-22T05:18:11;3.70;99.90
27200;DHT22;14714;48.106;11.546;2023-11-22T05:20:38;3.60;99.90
27200;DHT22;14714;48.106;11.546;2023-11-22T05:23:04;3.70;99.90
27200;DHT22;14714;48.106;11.546;2023-11-22T05:25:31;3.70;99.90
27200;DHT22;14714;48.106;11.546;2023-11-22T05:27:58;3.60;99.90
27200;DHT22;14714;48.106;11.546;2023-11-22T05:30:26;3.70;99.90
27200;DHT22;14714;48.106;11.546;2023-11-22T05:32:52;3.70;99.90
27200;DHT22;14714;48.106;11.546;2023-11-22T05:35:20;3.70;99.90
27200;DHT22;14714;48.106;11.546;2023-11-22T05:37:47;3.70;99.90
27200;DHT22;14714;48.106;11.546;2023-11-22T05:40:14;3.70;99.90
27200;DHT22;14714;48.106;11.546;2023-11-22T05:42:42;3.80;99.90
27200;DHT22;14714;48.106;11.546;2023-11-22T05:45:09;3.80;99.90
27200;DHT22;14714;48.106;11.546;2023-11-22T05:47:37;3.70;99.90
27200;DHT22;14714;48.106;11.546;2023-11-22T05:50:05;3.70;99.90
27200;DHT22;14714;48.106;11.546;2023-11-22T05:52:32;3.70;99.90
27200;DHT22;14714;48.106;11.546;2023-11-22T05:54:59;3.70;99.90
27200;DHT22;14714;48.106;11.546;2023-11-22T05:57:30;3.60;99.90
27200;DHT22;14714;48.106;11.546;2023-11-22T05:59:57;3.60;99.90
27200;DHT22;14714;48.106;11.546;2023-11-22T06:02:24;3.60;99.90
27200;DHT22;14714;48.106;11.546;2023-11-22T06:04:51;3.60;99.90
27200;DHT22;14714;48.106;11.546;2023-11-22T06:07:18;3.60;99.90
27200;DHT22;14714;48.106;11.546;2023-11-22T06:09:45;3.60;99.90
27200;DHT22;14714;48.106;11.546;2023-11-22T06:12:12;3.50;99.90
27200;DHT22;14714;48.106;11.546;2023-11-22T06:14:39;3.60;99.90
27200;DHT22;14714;48.106;11.546;2023-11-22T06:17:05;3.50;99.90
27200;DHT22;14714;48.106;11.546;2023-11-22T06:19:32;3.50;99.90
27200;DHT22;14714;48.106;11.546;2023-11-22T06:21:59;3.50;99.90
27200;DHT22;14714;48.106;11.546;2023-11-22T06:24:28;3.50;99.90
27200;DHT22;14714;48.106;11.546;2023-11-22T06:26:55;3.50;99.90
27200;DHT22;14714;48.106;11.546;2023-11-22T06:29:22;3.40;99.90
27200;DHT22;14714;48.106;11.546;2023-11-22T06:31:49;3.40;99.90
27200;DHT22;14714;48.106;11.546;2023-11-22T06:34:15;3.40;99.90
27200;DHT22;14714;48.106;11.546;2023-11-22T06:36:42;3.40;99.90
27200;DHT22;14714;48.106;11.546;2023-11-22T06:39:09;3.50;99.90
27200;DHT22;14714;48.106;11.546;2023-11-22T06:41:41;3.50;99.90
27200;DHT22;14714;48.106;11.546;2023-11-22T06:44:08;3.50;99.90
27200;DHT22;14714;48.106;11.546;2023-11-22T06:46:36;3.50;99.90
27200;DHT22;14714;48.106;11.546;2023-11-22T06:49:03;3.40;99.90
27200;DHT22;14714;48.106;11.546;2023-11-22T06:51:31;3.50;99.90
27200;DHT22;14714;48.106;11.546;2023-11-22T06:53:58;3.50;99.90
27200;DHT22;14714;48.106;11.546;2023-11-22T06:56:27;3.50;99.90
27200;DHT22;14714;48.106;11.546;2023-11-22T06:58:54;3.40;99.90
27200;DHT22;14714;48.106;11.546;2023-11-22T07:01:24;3.40;99.90
27200;DHT22;14714;48.106;11.546;2023-11-22T07:03:54;3.50;99.90
27200;DHT22;14714;48.106;11.546;2023-11-22T07:06:22;3.40;99.90
27200;DHT22;14714;48.106;11.546;2023-11-22T07:08:52;3.40;99.90
27200;DHT22;14714;48.106;11.546;2023-11-22T07:11:23;3.40;99.90
27200;DHT22;14714;48.106;11.546;2023-11-22T07:13:50;3.50;99.90
27200;DHT22;14714;48.106;11.546;2023-11-22T07:16:18;3.50;99.90
27200;DHT22;14714;48.106;11.546;2023-11-22T07:18:45;3.50;99.90
27200;DHT22;14714;48.106;11.546;2023-11-22T07:21:12;3.50;99.90
27200;DHT22;14714;48.106;11.546;2023-11-22T07:23:39;3.50;99.90
27200;DHT22;14714;48.106;11.546;2023-11-22T07:26:06;3.50;99.90
27200;DHT22;14714;48.106;11.546;2023-11-22T07:28:33;3.50;99.90
27200;DHT22;14714;48.106;11.546;2023-11-22T07:31:02;3.50;99.90
27200;DHT22;14714;48.106;11.546;2023-11-22T07:33:32;3.50;99.90
27200;DHT22;14714;48.106;11.546;2023-11-22T07:35:59;3.50;99.90
27200;DHT22;14714;48.106;11.546;2023-11-22T07:38:26;3.50;99.90
27200;DHT22;14714;48.106;11.546;2023-11-22T07:40:54;3.60;99.90
27200;DHT22;14714;48.106;11.546;2023-11-22T07:43:21;3.60;99.90
27200;DHT22;14714;48.106;11.546;2023-11-22T07:45:47;3.60;99.90
27200;DHT22;14714;48.106;11.546;2023-11-22T07:48:15;3.60;99.90
27200;DHT22;14714;48.106;11.546;2023-11-22T07:50:43;3.60;99.90
27200;DHT22;14714;48.106;11.546;2023-11-22T07:53:13;3.60;99.90
27200;DHT22;14714;48.106;11.546;2023-11-22T07:55:41;3.60;99.90
27200;DHT22;14714;48.106;11.546;2023-11-22T07:58:08;3.70;99.90
27200;DHT22;14714;48.106;11.546;2023-11-22T08:00:35;3.70;99.90
27200;DHT22;14714;48.106;11.546;2023-11-22T08:03:03;3.70;99.90
27200;DHT22;14714;48.106;11.546;2023-11-22T08:05:32;3.70;99.90
27200;DHT22;14714;48.106;11.546;2023-11-22T08:08:03;3.60;99.90
27200;DHT22;14714;48.106;11.546;2023-11-22T08:10:35;3.60;99.90
27200;DHT22;14714;48.106;11.546;2023-11-22T08:13:02;3.60;99.90
27200;DHT22;14714;48.106;11.546;2023-11-22T08:15:30;3.70;99.90
27200;DHT22;14714;48.106;11.546;2023-11-22T08:17:59;3.70;99.90
27200;DHT22;14714;48.106;11.546;2023-11-22T08:20:29;3.70;99.90
27200;DHT22;14714;48.106;11.546;2023-11-22T08:22:57;3.80;99.90
27200;DHT22;14714;48.106;11.546;2023-11-22T08:25:24;3.90;99.90
27200;DHT22;14714;48.106;11.546;2023-11-22T08:27:51;3.90;99.90
27200;DHT22;14714;48.106;11.546;2023-11-22T08:30:18;3.90;99.90
27200;DHT22;14714;48.106;11.546;2023-11-22T08:32:46;3.90;99.90
27200;DHT22;14714;48.106;11.546;2023-11-22T08:35:21;3.90;99.90
27200;DHT22;14714;48.106;11.546;2023-11-22T08:37:48;3.80;99.90
27200;DHT22;14714;48.106;11.546;2023-11-22T08:40:17;3.80;99.90
27200;DHT22;14714;48.106;11.546;2023-11-22T08:42:47;3.80;99.90
27200;DHT22;14714;48.106;11.546;2023-11-22T08:45:15;3.80;99.90
27200;DHT22;14714;48.106;11.546;2023-11-22T08:47:42;3.80;99.90
27200;DHT22;14714;48.106;11.546;2023-11-22T08:50:09;3.80;99.90
27200;DHT22;14714;48.106;11.546;2023-11-22T08:52:39;3.70;99.90
27200;DHT22;14714;48.106;11.546;2023-11-22T08:55:08;3.70;99.90
27200;DHT22;14714;48.106;11.546;2023-11-22T08:57:36;3.70;99.90
27200;DHT22;14714;48.106;11.546;2023-11-22T09:00:07;3.70;99.90
27200;DHT22;14714;48.106;11.546;2023-11-22T09:02:37;3.70;99.90
27200;DHT22;14714;48.106;11.546;2023-11-22T09:05:05;3.60;99.90
27200;DHT22;14714;48.106;11.546;2023-11-22T09:07:35;3.60;99.90
27200;DHT22;14714;48.106;11.546;2023-11-22T09:10:03;3.50;99.90
27200;DHT22;14714;48.106;11.546;2023-11-22T09:12:38;3.50;99.90
27200;DHT22;14714;48.106;11.546;2023-11-22T09:15:08;3.50;99.90
27200;DHT22;14714;48.106;11.546;2023-11-22T09:17:40;3.40;99.90
27200;DHT22;14714;48.106;11.546;2023-11-22T09:20:10;3.40;99.90
27200;DHT22;14714;48.106;11.546;2023-11-22T09:22:43;3.50;99.90
27200;DHT22;14714;48.106;11.546;2023-11-22T09:25:19;3.50;99.90
27200;DHT22;14714;48.106;11.546;2023-11-22T09:27:47;3.60;99.90
27200;DHT22;14714;48.106;11.546;2023-11-22T09:30:16;3.60;99.90
27200;DHT22;14714;48.106;11.546;2023-11-22T09:33:08;3.70;99.90
27200;DHT22;14714;48.106;11.546;2023-11-22T09:35:36;3.70;99.90
27200;DHT22;14714;48.106;11.546;2023-11-22T09:38:05;3.70;99.90
27200;DHT22;14714;48.106;11.546;2023-11-22T09:40:36;3.70;99.90
27200;DHT22;14714;48.106;11.546;2023-11-22T09:43:04;3.70;99.90
27200;DHT22;14714;48.106;11.546;2023-11-22T09:45:31;3.70;99.90
27200;DHT22;14714;48.106;11.546;2023-11-22T09:47:59;3.70;99.90
27200;DHT22;14714;48.106;11.546;2023-11-22T09:53:02;3.60;99.90
27200;DHT22;14714;48.106;11.546;2023-11-22T09:55:33;3.50;99.90
27200;DHT22;14714;48.106;11.546;2023-11-22T09:58:01;3.50;99.90
27200;DHT22;14714;48.106;11.546;2023-11-22T10:00:29;3.50;99.90
27200;DHT22;14714;48.106;11.546;2023-11-22T10:02:59;3.50;99.90
27200;DHT22;14714;48.106;11.546;2023-11-22T10:05:26;3.50;99.90
27200;DHT22;14714;48.106;11.546;2023-11-22T10:07:55;3.50;99.90
27200;DHT22;14714;48.106;11.546;2023-11-22T10:10:22;3.50;99.90
27200;DHT22;14714;48.106;11.546;2023-11-22T10:12:49;3.50;99.90
27200;DHT22;14714;48.106;11.546;2023-11-22T10:15:17;3.50;99.90
27200;DHT22;14714;48.106;11.546;2023-11-22T10:17:59;3.50;99.90
27200;DHT22;14714;48.106;11.546;2023-11-22T10:20:38;3.40;99.90
27200;DHT22;14714;48.106;11.546;2023-11-22T10:23:10;3.40;99.90
27200;DHT22;14714;48.106;11.546;2023-11-22T10:25:44;3.40;99.90
27200;DHT22;14714;48.106;11.546;2023-11-22T10:28:12;3.40;99.90
27200;DHT22;14714;48.106;11.546;2023-11-22T10:30:39;3.40;99.90
27200;DHT22;14714;48.106;11.546;2023-11-22T10:33:10;3.40;99.90
27200;DHT22;14714;48.106;11.546;2023-11-22T10:35:48;3.40;99.90
27200;DHT22;14714;48.106;11.546;2023-11-22T10:38:15;3.30;99.90
27200;DHT22;14714;48.106;11.546;2023-11-22T10:40:43;3.40;99.90
27200;DHT22;14714;48.106;11.546;2023-11-22T10:43:15;3.40;99.90
27200;DHT22;14714;48.106;11.546;2023-11-22T10:45:45;3.40;99.90
27200;DHT22;14714;48.106;11.546;2023-11-22T10:48:16;3.50;99.90
27200;DHT22;14714;48.106;11.546;2023-11-22T10:50:44;3.50;99.90
27200;DHT22;14714;48.106;11.546;2023-11-22T10:53:13;3.60;99.90
27200;DHT22;14714;48.106;11.546;2023-11-22T10:55:46;3.60;99.90
27200;DHT22;14714;48.106;11.546;2023-11-22T10:58:18;3.60;99.90
27200;DHT22;14714;48.106;11.546;2023-11-22T11:00:46;3.70;99.90
27200;DHT22;14714;48.106;11.546;2023-11-22T11:03:14;3.70;99.90
27200;DHT22;14714;48.106;11.546;2023-11-22T11:05:54;3.70;99.90
27200;DHT22;14714;48.106;11.546;2023-11-22T11:08:28;3.80;99.90
27200;DHT22;14714;48.106;11.546;2023-11-22T11:10:56;3.80;99.90
27200;DHT22;14714;48.106;11.546;2023-11-22T11:13:25;3.90;99.90
27200;DHT22;14714;48.106;11.546;2023-11-22T11:15:53;4.00;99.90
27200;DHT22;14714;48.106;11.546;2023-11-22T11:18:20;4.10;99.90
27200;DHT22;14714;48.106;11.546;2023-11-22T11:20:58;4.10;99.90
27200;DHT22;14714;48.106;11.546;2023-11-22T11:23:30;4.10;99.90
27200;DHT22;14714;48.106;11.546;2023-11-22T11:26:08;4.20;99.90
27200;DHT22;14714;48.106;11.546;2023-11-22T11:28:46;4.20;99.90
27200;DHT22;14714;48.106;11.546;2023-11-22T11:31:20;4.20;99.90
27200;DHT22;14714;48.106;11.546;2023-11-22T11:36:31;4.20;99.90
27200;DHT22;14714;48.106;11.546;2023-11-22T11:39:01;4.30;99.90
27200;DHT22;14714;48.106;11.546;2023-11-22T11:41:32;4.30;99.90
27200;DHT22;14714;48.106;11.546;2023-11-22T11:44:07;4.30;99.90
27200;DHT22;14714;48.106;11.546;2023-11-22T11:46:37;4.40;99.90
27200;DHT22;14714;48.106;11.546;2023-11-22T11:49:09;4.30;99.90
27200;DHT22;14714;48.106;11.546;2023-11-22T11:51:38;4.30;99.90
27200;DHT22;14714;48.106;11.546;2023-11-22T11:54:05;4.30;99.90
27200;DHT22;14714;48.106;11.546;2023-11-22T11:56:33;4.30;99.90
27200;DHT22;14714;48.106;11.546;2023-11-22T11:59:01;4.40;99.90
27200;DHT22;14714;48.106;11.546;2023-11-22T12:01:29;4.40;99.90
27200;DHT22;14714;48.106;11.546;2023-11-22T12:04:03;4.40;99.90
27200;DHT22;14714;48.106;11.546;2023-11-22T12:06:31;4.40;99.90
27200;DHT22;14714;48.106;11.546;2023-11-22T12:09:00;4.30;99.90
27200;DHT22;14714;48.106;11.546;2023-11-22T12:11:27;4.30;99.90
27200;DHT22;14714;48.106;11.546;2023-11-22T12:13:57;4.30;99.90
27200;DHT22;14714;48.106;11.546;2023-11-22T12:16:25;4.30;99.90
27200;DHT22;14714;48.106;11.546;2023-11-22T12:18:54;4.30;99.90
27200;DHT22;14714;48.106;11.546;2023-11-22T12:21:21;4.30;99.90
27200;DHT22;14714;48.106;11.546;2023-11-22T12:23:50;4.30;99.90
27200;DHT22;14714;48.106;11.546;2023-11-22T12:26:20;4.30;99.90
27200;DHT22;14714;48.106;11.546;2023-11-22T12:28:49;4.30;99.90
27200;DHT22;14714;48.106;11.546;2023-11-22T12:31:29;4.30;99.90
27200;DHT22;14714;48.106;11.546;2023-11-22T12:34:03;4.30;99.90
27200;DHT22;14714;48.106;11.546;2023-11-22T12:36:30;4.30;99.90
27200;DHT22;14714;48.106;11.546;2023-11-22T12:38:57;4.30;99.90
27200;DHT22;14714;48.106;11.546;2023-11-22T12:41:30;4.30;99.90
27200;DHT22;14714;48.106;11.546;2023-11-22T12:44:03;4.30;99.90
27200;DHT22;14714;48.106;11.546;2023-11-22T12:46:48;4.30;99.90
27200;DHT22;14714;48.106;11.546;2023-11-22T12:49:47;4.20;99.90
27200;DHT22;14714;48.106;11.546;2023-11-22T12:52:16;4.20;99.90
27200;DHT22;14714;48.106;11.546;2023-11-22T12:54:43;4.20;99.90
27200;DHT22;14714;48.106;11.546;2023-11-22T12:57:14;4.20;99.90
27200;DHT22;14714;48.106;11.546;2023-11-22T12:59:45;4.10;99.90
27200;DHT22;14714;48.106;11.546;2023-11-22T13:02:12;4.10;99.90
27200;DHT22;14714;48.106;11.546;2023-11-22T13:04:38;4.10;99.90
27200;DHT22;14714;48.106;11.546;2023-11-22T13:07:05;4.10;99.90
27200;DHT22;14714;48.106;11.546;2023-11-22T13:09:34;4.00;99.90
27200;DHT22;14714;48.106;11.546;2023-11-22T13:12:02;4.00;99.90
27200;DHT22;14714;48.106;11.546;2023-11-22T13:14:30;4.00;99.90
27200;DHT22;14714;48.106;11.546;2023-11-22T13:17:02;3.90;99.90
27200;DHT22;14714;48.106;11.546;2023-11-22T13:19:30;4.00;99.90
27200;DHT22;14714;48.106;11.546;2023-11-22T13:21:57;3.90;99.90
27200;DHT22;14714;48.106;11.546;2023-11-22T13:24:24;4.00;99.90
27200;DHT22;14714;48.106;11.546;2023-11-22T13:26:51;4.00;99.90
27200;DHT22;14714;48.106;11.546;2023-11-22T13:29:18;4.00;99.90
27200;DHT22;14714;48.106;11.546;2023-11-22T13:31:45;4.00;99.90
27200;DHT22;14714;48.106;11.546;2023-11-22T13:34:12;4.00;99.90
27200;DHT22;14714;48.106;11.546;2023-11-22T13:36:39;4.10;99.90
27200;DHT22;14714;48.106;11.546;2023-11-22T13:39:06;4.00;99.90
27200;DHT22;14714;48.106;11.546;2023-11-22T13:41:32;4.00;99.90
27200;DHT22;14714;48.106;11.546;2023-11-22T13:43:59;4.00;99.90
27200;DHT22;14714;48.106;11.546;2023-11-22T13:46:27;3.90;99.90
27200;DHT22;14714;48.106;11.546;2023-11-22T13:48:54;3.90;99.90
27200;DHT22;14714;48.106;11.546;2023-11-22T13:51:21;3.90;99.90
27200;DHT22;14714;48.106;11.546;2023-11-22T13:53:50;3.90;99.90
27200;DHT22;14714;48.106;11.546;2023-11-22T13:56:20;3.90;99.90
27200;DHT22;14714;48.106;11.546;2023-11-22T13:58:47;3.90;99.90
27200;DHT22;14714;48.106;11.546;2023-11-22T14:01:14;3.90;99.90
27200;DHT22;14714;48.106;11.546;2023-11-22T14:03:48;3.90;99.90
27200;DHT22;14714;48.106;11.546;2023-11-22T14:06:15;3.90;99.90
27200;DHT22;14714;48.106;11.546;2023-11-22T14:08:43;3.90;99.90
27200;DHT22;14714;48.106;11.546;2023-11-22T14:11:12;3.90;99.90
27200;DHT22;14714;48.106;11.546;2023-11-22T14:13:39;3.90;99.90
27200;DHT22;14714;48.106;11.546;2023-11-22T14:16:07;3.90;99.90
27200;DHT22;14714;48.106;11.546;2023-11-22T14:18:35;4.00;99.90
27200;DHT22;14714;48.106;11.546;2023-11-22T14:21:02;4.00;99.90
27200;DHT22;14714;48.106;11.546;2023-11-22T14:23:30;4.00;99.90
27200;DHT22;14714;48.106;11.546;2023-11-22T14:25:57;4.00;99.90
27200;DHT22;14714;48.106;11.546;2023-11-22T14:28:24;4.00;99.90
27200;DHT22;14714;48.106;11.546;2023-11-22T14:30:51;4.00;99.90
27200;DHT22;14714;48.106;11.546;2023-11-22T14:33:21;4.00;99.90
27200;DHT22;14714;48.106;11.546;2023-11-22T14:35:48;4.00;99.90
27200;DHT22;14714;48.106;11.546;2023-11-22T14:38:15;3.90;99.90
27200;DHT22;14714;48.106;11.546;2023-11-22T14:40:44;3.90;99.90
27200;DHT22;14714;48.106;11.546;2023-11-22T14:43:11;3.90;99.90
27200;DHT22;14714;48.106;11.546;2023-11-22T14:45:38;3.80;99.90
27200;DHT22;14714;48.106;11.546;2023-11-22T14:48:05;3.80;99.90
27200;DHT22;14714;48.106;11.546;2023-11-22T14:50:33;3.90;99.90
27200;DHT22;14714;48.106;11.546;2023-11-22T14:53:00;3.90;99.90
27200;DHT22;14714;48.106;11.546;2023-11-22T14:55:27;3.90;99.90
27200;DHT22;14714;48.106;11.546;2023-11-22T14:57:54;3.90;99.90
27200;DHT22;14714;48.106;11.546;2023-11-22T15:00:23;3.90;99.90
27200;DHT22;14714;48.106;11.546;2023-11-22T15:02:51;4.00;99.90
27200;DHT22;14714;48.106;11.546;2023-11-22T15:05:21;3.90;99.90
27200;DHT22;14714;48.106;11.546;2023-11-22T15:07:49;4.00;99.90
27200;DHT22;14714;48.106;11.546;2023-11-22T15:10:21;4.00;99.90
27200;DHT22;14714;48.106;11.546;2023-11-22T15:12:48;4.00;99.90
27200;DHT22;14714;48.106;11.546;2023-11-22T15:15:15;4.00;99.90
27200;DHT22;14714;48.106;11.546;2023-11-22T15:17:42;4.00;99.90
27200;DHT22;14714;48.106;11.546;2023-11-22T15:20:10;4.00;99.90
27200;DHT22;14714;48.106;11.546;2023-11-22T15:22:39;4.00;99.90
27200;DHT22;14714;48.106;11.546;2023-11-22T15:25:06;4.00;99.90
27200;DHT22;14714;48.106;11.546;2023-11-22T15:27:33;4.00;99.90
27200;DHT22;14714;48.106;11.546;2023-11-22T15:30:00;3.90;99.90
27200;DHT22;14714;48.106;11.546;2023-11-22T15:32:28;3.90;99.90
27200;DHT22;14714;48.106;11.546;2023-11-22T15:34:55;3.90;99.90
27200;DHT22;14714;48.106;11.546;2023-11-22T15:37:21;3.90;99.90
27200;DHT22;14714;48.106;11.546;2023-11-22T15:39:48;3.90;99.90
27200;DHT22;14714;48.106;11.546;2023-11-22T15:42:15;3.80;99.90